Blessing, TX (77419)

1:27 AM CST on January 18, 2017 (GMT -0600)
MUR081 | | Change Station

Elev 32 ft 28.87 °N, 96.27 °W | Updated 59 minutes ago

Overcast
Overcast
73.0 °F
Feels Like 73.0 °F
N
-
Wind Variable Wind from North

Today
High -- | Low -- °F
--% Chance of Precip.
Yesterday
High -- | Low -- °F
Precip. -- in
Pressure 30.00 in
Visibility 8.0 miles
Clouds Few 1500 ft
Mostly Cloudy 2300 ft
Overcast 9500 ft
Dew Point Not available.
Humidity Not available.
Rainfall 0.06 in
Snow Depth Not available.
7:18 AM 5:52 PM
Waning Gibbous, 65% visible
METAR KPSX 180653Z AUTO 15012KT 8SM FEW015 BKN023 OVC095 22/21 A3000 RMK AO2 LTG DSNT N AND NE SLP158 T02170211
Pressure 30.00 in
Visibility 8.0 miles
Clouds Few 1500 ft
Mostly Cloudy 2300 ft
Overcast 9500 ft
Dew Point Not available.
Humidity Not available.
Rainfall 0.06 in
Snow Depth Not available.
7:18 AM 5:52 PM
Waning Gibbous, 65% visible
METAR KPSX 180653Z AUTO 15012KT 8SM FEW015 BKN023 OVC095 22/21 A3000 RMK AO2 LTG DSNT N AND NE SLP158 T02170211

Get Your Daily Forecast Email!

Thanks for signing up!

Be on the lookout for a verification email in your inbox.

You'll start receiving the daily forecast at 8 AM.

×

10-Day Weather Forecast

Almanac

Astronomy

Jan. 18, 2017 Rise Set
Actual Time
Civil Twilight
Nautical Twilight
Astronomical Twilight
Moon
Length of Visible Light
Length of Day
Tomorrow will be .
, % of the Moon is Illuminated

Today's Extremes

State Highs State Lows

Community

WunderPhotos

Upload Photos

1,962,540 photos uploaded!

WunderBlog® & News

Nearby

Air Quality

  Air Quality AQ Index Pollutant
Not available.

Snow Depth

Station Depth Elevation

Earthquake Activity

City Distance Mag. Time & Date
Minimum magnitude displayed is 2.5.

Coastal Water Temperatures

Place Temperature

Stations

Nearby Weather Stations

Station Location Temp. Windchill Dew Point Humidity Wind Precip. Elev Updated Type
                   

Watches & Warnings

There are currently no watches in effect.